Time;durP1;ratioP1;P1;durP2;ratioP2;P2;SDS_P1;SDS_P2;PMS_P1;PMS_P2;Temp;Humidity;BMP_temperature;BMP_pressure;BME280_temperature;BME280_humidity;BME280_pressure;Samples;Min_cycle;Max_cycle;Signal;HPM_P1;HPM_P2
2023/07/10 00:00:37;;;;;;;3.77;2.20;;;17.10;99.90;;;;;;5048449;28;20209;-68
2023/07/10 00:03:24;;;;;;;4.53;2.03;;;17.10;99.90;;;;;;5049380;28;20201;-68
2023/07/10 00:06:12;;;;;;;4.90;1.73;;;17.10;99.90;;;;;;5041919;28;20667;-68
2023/07/10 00:09:01;;;;;;;2.53;1.83;;;17.00;99.90;;;;;;5049130;28;20573;-68
2023/07/10 00:11:48;;;;;;;7.37;1.80;;;17.00;99.90;;;;;;5049578;28;20206;-68
2023/07/10 00:14:35;;;;;;;3.17;1.70;;;17.00;99.90;;;;;;5048720;28;20331;-68
2023/07/10 00:17:23;;;;;;;2.37;1.67;;;17.00;99.90;;;;;;5051991;28;20700;-68
2023/07/10 00:20:13;;;;;;;3.07;1.50;;;17.00;99.90;;;;;;5047717;28;20210;-68
2023/07/10 00:23:01;;;;;;;3.40;1.70;;;17.00;99.90;;;;;;5043803;28;20197;-68
2023/07/10 00:25:49;;;;;;;2.97;1.63;;;17.00;99.90;;;;;;5052187;28;20233;-68
2023/07/10 00:28:37;;;;;;;3.13;1.80;;;16.90;99.90;;;;;;5050469;28;20286;-68
2023/07/10 00:31:25;;;;;;;3.47;1.60;;;16.80;99.90;;;;;;5046710;28;20352;-68
2023/07/10 00:34:14;;;;;;;2.20;1.60;;;16.80;99.90;;;;;;5051787;28;20205;-68
2023/07/10 00:37:01;;;;;;;4.83;1.70;;;16.70;99.90;;;;;;5045036;28;20228;-68
2023/07/10 00:39:48;;;;;;;2.83;1.90;;;16.60;99.90;;;;;;5047039;28;20274;-68
2023/07/10 00:42:37;;;;;;;3.90;2.10;;;16.60;99.90;;;;;;5050031;28;20228;-68
2023/07/10 00:45:24;;;;;;;2.83;1.50;;;16.50;99.90;;;;;;5047423;28;20200;-68
2023/07/10 00:48:13;;;;;;;3.57;1.87;;;16.50;99.90;;;;;;5048509;28;20209;-67
2023/07/10 00:51:02;;;;;;;3.13;1.70;;;16.50;99.90;;;;;;5046361;28;20203;-68
2023/07/10 00:53:49;;;;;;;4.70;1.80;;;16.30;99.90;;;;;;5049197;28;21111;-68
2023/07/10 00:56:39;;;;;;;2.67;1.73;;;16.30;99.90;;;;;;5042655;28;20204;-68
2023/07/10 00:59:28;;;;;;;4.07;1.80;;;16.30;99.90;;;;;;5048098;28;20195;-68
2023/07/10 01:02:21;;;;;;;3.57;1.80;;;16.20;99.90;;;;;;5047398;28;20272;-68
2023/07/10 01:05:08;;;;;;;5.87;1.90;;;16.10;99.90;;;;;;5047498;28;20659;-68
2023/07/10 01:07:57;;;;;;;2.87;1.77;;;16.00;99.90;;;;;;5045036;28;20224;-68
2023/07/10 01:10:45;;;;;;;3.07;1.73;;;15.80;99.90;;;;;;5047720;28;20341;-68
2023/07/10 01:13:32;;;;;;;3.17;2.00;;;15.70;99.90;;;;;;5046533;28;20210;-68
2023/07/10 01:16:21;;;;;;;4.53;2.00;;;15.60;99.90;;;;;;5047951;28;20204;-68
2023/07/10 01:19:11;;;;;;;2.93;1.97;;;15.50;99.90;;;;;;5048405;28;20577;-68
2023/07/10 01:22:00;;;;;;;5.57;1.73;;;15.60;99.90;;;;;;5048005;28;20205;-68
2023/07/10 01:24:52;;;;;;;2.70;2.03;;;15.50;99.90;;;;;;5050165;28;20206;-68
2023/07/10 01:27:39;;;;;;;2.70;2.00;;;15.40;99.90;;;;;;5049301;28;20225;-68
2023/07/10 01:30:30;;;;;;;3.87;1.80;;;15.30;99.90;;;;;;5045925;28;20198;-68
2023/07/10 01:33:18;;;;;;;5.33;2.13;;;15.20;99.90;;;;;;5048176;28;20197;-67
2023/07/10 01:36:06;;;;;;;3.10;2.00;;;15.10;99.90;;;;;;5049985;28;20209;-68
2023/07/10 01:39:00;;;;;;;3.83;2.03;;;15.00;99.90;;;;;;5048798;28;20607;-68
2023/07/10 01:41:47;;;;;;;4.27;2.13;;;14.90;99.90;;;;;;5048258;28;20207;-68
2023/07/10 01:44:35;;;;;;;3.93;2.00;;;14.90;99.90;;;;;;5047729;28;20679;-68
2023/07/10 01:47:22;;;;;;;4.63;2.20;;;14.90;99.90;;;;;;5051841;28;20291;-68
2023/07/10 01:50:10;;;;;;;4.37;1.80;;;14.90;99.90;;;;;;5042856;28;20234;-68
2023/07/10 01:52:57;;;;;;;4.80;1.90;;;14.80;99.90;;;;;;5049956;28;20209;-68
2023/07/10 01:55:46;;;;;;;2.97;1.97;;;14.70;99.90;;;;;;5051835;28;20668;-68
2023/07/10 01:58:33;;;;;;;3.70;2.07;;;14.70;99.90;;;;;;5051481;28;20367;-68
2023/07/10 02:01:20;;;;;;;2.33;1.90;;;14.60;99.90;;;;;;5051073;28;20247;-68
2023/07/10 02:04:07;;;;;;;4.03;2.30;;;14.60;99.90;;;;;;5052135;28;20667;-68
2023/07/10 02:06:55;;;;;;;2.93;1.93;;;14.50;99.90;;;;;;5050512;28;20594;-68
2023/07/10 02:09:42;;;;;;;3.67;2.10;;;14.50;99.90;;;;;;5051327;28;20283;-68
2023/07/10 02:12:31;;;;;;;4.03;2.17;;;14.40;99.90;;;;;;5047636;28;20675;-67
2023/07/10 02:15:18;;;;;;;2.90;2.10;;;14.40;99.90;;;;;;5048028;28;20208;-68
2023/07/10 02:18:05;;;;;;;4.67;2.13;;;14.40;99.90;;;;;;5045892;28;20233;-67
2023/07/10 02:20:53;;;;;;;6.27;2.40;;;14.40;99.90;;;;;;5051736;28;20198;-68
2023/07/10 02:23:40;;;;;;;4.43;2.20;;;14.40;99.90;;;;;;5049909;28;20626;-68
2023/07/10 02:26:29;;;;;;;3.40;2.23;;;14.40;99.90;;;;;;5052182;28;20201;-67
2023/07/10 02:29:17;;;;;;;6.23;2.50;;;14.40;99.90;;;;;;5048962;28;20189;-68
2023/07/10 02:32:05;;;;;;;3.03;2.20;;;14.30;99.90;;;;;;5053232;28;20201;-68
2023/07/10 02:34:53;;;;;;;4.07;2.23;;;14.30;99.90;;;;;;5052375;28;20195;-68
2023/07/10 02:37:40;;;;;;;4.00;2.50;;;14.30;99.90;;;;;;5052113;28;20217;-68
2023/07/10 02:40:27;;;;;;;3.43;2.33;;;14.20;99.90;;;;;;5049748;28;20658;-68
2023/07/10 02:43:14;;;;;;;3.13;2.30;;;14.30;99.90;;;;;;5048073;28;20207;-68
2023/07/10 02:46:03;;;;;;;5.43;2.57;;;14.30;99.90;;;;;;5053558;28;20248;-68
2023/07/10 02:48:50;;;;;;;4.87;2.50;;;14.30;99.90;;;;;;5053422;28;20707;-68
2023/07/10 02:51:37;;;;;;;5.40;2.47;;;14.30;99.90;;;;;;5051801;28;20205;-68
2023/07/10 02:54:24;;;;;;;4.43;2.30;;;14.30;99.90;;;;;;5052741;28;20209;-68
2023/07/10 02:57:11;;;;;;;7.63;2.47;;;14.30;99.90;;;;;;5046903;28;20210;-68
2023/07/10 02:59:59;;;;;;;7.23;2.70;;;14.30;99.90;;;;;;5051938;28;20214;-68
2023/07/10 03:02:47;;;;;;;3.30;2.33;;;14.30;99.90;;;;;;5049478;28;20228;-68
2023/07/10 03:05:34;;;;;;;3.90;2.60;;;14.30;99.90;;;;;;5049614;28;20283;-68
2023/07/10 03:08:21;;;;;;;4.27;2.40;;;14.30;99.90;;;;;;5048313;28;20684;-68
2023/07/10 03:11:10;;;;;;;6.77;2.40;;;14.30;99.90;;;;;;5049697;28;20203;-68
2023/07/10 03:13:58;;;;;;;4.47;2.60;;;14.40;99.90;;;;;;5049204;28;20592;-68
2023/07/10 03:16:46;;;;;;;3.57;2.27;;;14.40;99.90;;;;;;5049268;28;20202;-68
2023/07/10 03:19:35;;;;;;;3.97;2.60;;;14.40;99.90;;;;;;5050240;28;20692;-68
2023/07/10 03:22:22;;;;;;;6.90;2.53;;;14.40;99.90;;;;;;5048058;28;20280;-68
2023/07/10 03:25:09;;;;;;;5.40;2.70;;;14.50;99.90;;;;;;5050623;28;20266;-68
2023/07/10 03:27:56;;;;;;;4.70;2.43;;;14.50;99.90;;;;;;5048657;28;20192;-68
2023/07/10 03:30:44;;;;;;;4.53;2.17;;;14.50;99.90;;;;;;5050260;28;20686;-68
2023/07/10 03:33:31;;;;;;;4.97;2.43;;;14.60;99.90;;;;;;5049967;28;20232;-68
2023/07/10 03:36:21;;;;;;;5.60;2.30;;;14.60;99.90;;;;;;5045955;28;20238;-68
2023/07/10 03:39:08;;;;;;;5.20;2.23;;;14.70;99.90;;;;;;5050231;28;20236;-68
2023/07/10 03:41:55;;;;;;;2.93;2.00;;;14.70;99.90;;;;;;5049930;28;20228;-68
2023/07/10 03:44:42;;;;;;;5.57;2.60;;;14.80;99.90;;;;;;5046470;28;20681;-68
2023/07/10 03:47:30;;;;;;;3.67;2.30;;;14.90;99.90;;;;;;5047832;28;20288;-68
2023/07/10 03:50:18;;;;;;;4.70;2.50;;;14.90;99.90;;;;;;5047122;28;20742;-68
2023/07/10 03:53:06;;;;;;;5.73;2.23;;;14.90;99.90;;;;;;5047898;28;20695;-68
2023/07/10 03:55:55;;;;;;;3.60;2.30;;;15.00;99.90;;;;;;5050256;28;20212;-68
2023/07/10 03:58:43;;;;;;;7.33;2.47;;;15.00;99.90;;;;;;5048366;28;20250;-68
2023/07/10 04:01:30;;;;;;;3.57;2.50;;;15.10;99.90;;;;;;5047252;28;20193;-68
2023/07/10 04:04:18;;;;;;;6.80;2.60;;;15.10;99.90;;;;;;5048593;28;20212;-68
2023/07/10 04:07:05;;;;;;;6.90;2.13;;;15.20;99.90;;;;;;5045236;28;20244;-68
2023/07/10 04:09:54;;;;;;;2.43;2.10;;;15.30;99.90;;;;;;5049121;28;20193;-68
2023/07/10 04:12:43;;;;;;;6.47;2.30;;;15.40;99.90;;;;;;5048903;28;20220;-68
2023/07/10 04:15:30;;;;;;;4.37;2.23;;;15.50;99.90;;;;;;5045956;28;20200;-68
2023/07/10 04:18:17;;;;;;;5.00;2.40;;;15.50;99.90;;;;;;5046752;28;20299;-68
2023/07/10 04:21:06;;;;;;;3.13;2.00;;;15.60;99.90;;;;;;5049577;28;20201;-68
2023/07/10 04:23:54;;;;;;;7.07;2.20;;;15.70;99.90;;;;;;5049661;28;20210;-68
2023/07/10 04:26:42;;;;;;;4.93;2.10;;;15.70;99.90;;;;;;5047279;28;20204;-68
2023/07/10 04:29:29;;;;;;;5.60;2.03;;;15.80;99.90;;;;;;5047111;28;20201;-68
2023/07/10 04:32:17;;;;;;;3.07;2.27;;;15.90;99.90;;;;;;5046464;28;20198;-68
2023/07/10 04:35:05;;;;;;;4.63;2.10;;;15.90;99.90;;;;;;5049647;28;20200;-68
2023/07/10 04:37:52;;;;;;;7.47;2.23;;;15.90;99.90;;;;;;5044175;28;20570;-68
2023/07/10 04:40:39;;;;;;;4.27;2.17;;;16.00;99.90;;;;;;5048412;28;20233;-68
2023/07/10 04:43:30;;;;;;;3.63;2.20;;;16.10;99.90;;;;;;5045798;28;20722;-68
2023/07/10 04:46:18;;;;;;;4.23;2.53;;;16.30;99.90;;;;;;5049177;28;20201;-68
2023/07/10 04:49:05;;;;;;;4.67;2.47;;;16.50;99.90;;;;;;5046043;28;20235;-68
2023/07/10 04:51:52;;;;;;;3.50;2.20;;;16.60;99.90;;;;;;5049597;28;20213;-68
2023/07/10 04:54:39;;;;;;;2.80;1.97;;;16.80;99.90;;;;;;5047233;28;20202;-68
2023/07/10 04:57:27;;;;;;;3.80;2.13;;;17.10;99.90;;;;;;5046120;28;20202;-68
2023/07/10 05:00:16;;;;;;;4.43;2.20;;;17.40;99.90;;;;;;5049626;28;20209;-68
2023/07/10 05:03:04;;;;;;;4.03;2.37;;;17.60;99.90;;;;;;5047855;28;20200;-68
2023/07/10 05:05:52;;;;;;;5.20;2.00;;;17.80;99.90;;;;;;5047942;28;20221;-68
2023/07/10 05:08:40;;;;;;;3.27;2.10;;;18.00;99.90;;;;;;5048259;28;20214;-68
2023/07/10 05:11:28;;;;;;;3.03;2.07;;;18.10;99.90;;;;;;5046051;28;20195;-68
2023/07/10 05:14:15;;;;;;;4.13;2.30;;;18.30;99.90;;;;;;5047589;28;20597;-68
2023/07/10 05:17:04;;;;;;;3.67;2.23;;;18.40;99.90;;;;;;5048754;28;20662;-68
2023/07/10 05:19:51;;;;;;;2.80;2.07;;;18.50;99.90;;;;;;5043431;28;20243;-68
2023/07/10 05:22:39;;;;;;;2.77;2.37;;;18.70;99.90;;;;;;5045878;28;20195;-68
2023/07/10 05:25:27;;;;;;;4.37;2.30;;;18.90;99.90;;;;;;5045407;28;20275;-68
2023/07/10 05:28:14;;;;;;;8.03;2.30;;;19.10;99.90;;;;;;5047895;28;20188;-68
2023/07/10 05:31:01;;;;;;;3.23;2.00;;;19.30;99.90;;;;;;5047352;28;20207;-68
2023/07/10 05:33:50;;;;;;;4.83;2.20;;;19.60;99.90;;;;;;5046987;28;20225;-68
2023/07/10 05:36:37;;;;;;;3.87;2.50;;;19.90;99.90;;;;;;5041002;28;20291;-68
2023/07/10 05:39:25;;;;;;;5.53;2.57;;;20.00;99.90;;;;;;5046658;28;20225;-69
2023/07/10 05:42:13;;;;;;;5.93;3.00;;;20.20;99.90;;;;;;5043881;28;20193;-69
2023/07/10 05:45:00;;;;;;;7.37;3.37;;;20.40;99.90;;;;;;5044249;28;21080;-68
2023/07/10 05:47:47;;;;;;;6.37;3.47;;;20.60;99.90;;;;;;5046631;28;20363;-69
2023/07/10 05:50:36;;;;;;;7.97;3.47;;;20.80;99.90;;;;;;5047462;28;20244;-70
2023/07/10 05:53:23;;;;;;;8.13;3.70;;;21.00;99.90;;;;;;5046862;28;20279;-69
2023/07/10 05:56:10;;;;;;;5.80;3.20;;;21.30;99.90;;;;;;5049251;28;20688;-69
2023/07/10 05:58:57;;;;;;;7.70;3.80;;;21.50;99.90;;;;;;5053925;28;20267;-69
2023/07/10 06:01:44;;;;;;;8.43;3.60;;;21.60;99.90;;;;;;5040995;28;20289;-69
2023/07/10 06:04:31;;;;;;;5.63;3.27;;;21.80;99.90;;;;;;5048172;28;20197;-69
2023/07/10 06:07:20;;;;;;;8.20;3.23;;;21.90;99.90;;;;;;5039461;28;20205;-69
2023/07/10 06:10:08;;;;;;;8.83;3.40;;;22.00;99.90;;;;;;5046747;28;20210;-69
2023/07/10 06:12:55;;;;;;;6.23;3.60;;;22.10;99.90;;;;;;5045784;28;20280;-69
2023/07/10 06:15:42;;;;;;;5.50;3.03;;;22.30;99.90;;;;;;5048394;28;20202;-69
2023/07/10 06:18:29;;;;;;;6.23;3.37;;;22.60;99.90;;;;;;5045501;28;20688;-69
2023/07/10 06:21:17;;;;;;;5.83;3.53;;;22.70;99.90;;;;;;5047669;28;20209;-69
2023/07/10 06:24:06;;;;;;;5.67;3.40;;;22.90;99.90;;;;;;5045127;28;20205;-69
2023/07/10 06:26:54;;;;;;;5.43;3.40;;;23.00;99.90;;;;;;5045375;28;20679;-70
2023/07/10 06:29:41;;;;;;;9.63;3.80;;;23.10;99.90;;;;;;5049693;28;20198;-70
2023/07/10 06:32:28;;;;;;;10.50;3.63;;;23.30;99.90;;;;;;5045880;28;20279;-70
2023/07/10 06:35:15;;;;;;;5.10;3.33;;;23.40;99.90;;;;;;5046837;28;20656;-70
2023/07/10 06:38:02;;;;;;;6.03;3.70;;;23.70;99.90;;;;;;5048229;28;20224;-70
2023/07/10 06:40:51;;;;;;;6.57;3.70;;;23.90;99.90;;;;;;5053879;28;20216;-70
2023/07/10 06:43:38;;;;;;;6.93;3.33;;;24.00;99.90;;;;;;5052288;28;20567;-71
2023/07/10 06:46:26;;;;;;;9.13;4.30;;;24.10;99.90;;;;;;5053616;28;20212;-71
2023/07/10 06:49:13;;;;;;;9.33;4.20;;;24.00;99.90;;;;;;5046426;28;20226;-72
2023/07/10 06:52:00;;;;;;;5.97;3.30;;;23.90;99.90;;;;;;5049725;28;20266;-72
2023/07/10 06:54:48;;;;;;;4.47;2.80;;;24.00;99.90;;;;;;5052498;28;20216;-72
2023/07/10 06:57:36;;;;;;;5.07;2.90;;;24.10;99.90;;;;;;5050867;28;20196;-73
2023/07/10 07:00:23;;;;;;;10.23;2.87;;;24.20;99.90;;;;;;5050826;28;20217;-71
2023/07/10 07:03:11;;;;;;;3.97;2.70;;;24.40;99.90;;;;;;5048345;28;20205;-71
2023/07/10 07:05:58;;;;;;;6.13;2.53;;;24.50;97.70;;;;;;5051257;28;20278;-71
2023/07/10 07:08:47;;;;;;;7.97;2.58;;;24.70;97.30;;;;;;5045526;28;20206;-71
2023/07/10 07:11:34;;;;;;;14.73;3.22;;;24.80;94.70;;;;;;5039519;28;20260;-71
2023/07/10 07:14:23;;;;;;;4.95;2.33;;;24.90;93.60;;;;;;5043854;28;20212;-71
2023/07/10 07:17:10;;;;;;;5.45;2.80;;;25.10;92.90;;;;;;5048461;28;21015;-72
2023/07/10 07:19:57;;;;;;;7.40;2.60;;;25.30;93.30;;;;;;5047049;28;20220;-72
2023/07/10 07:22:44;;;;;;;4.53;2.55;;;25.50;92.70;;;;;;5037795;28;20216;-72
2023/07/10 07:25:31;;;;;;;6.43;2.92;;;25.60;87.60;;;;;;5047220;28;20234;-71
2023/07/10 07:28:19;;;;;;;5.00;2.50;;;25.70;90.30;;;;;;5046871;28;20197;-70
2023/07/10 07:31:07;;;;;;;5.63;2.97;;;25.90;90.60;;;;;;5047470;28;20221;-71
2023/07/10 07:33:55;;;;;;;4.35;3.00;;;26.00;84.60;;;;;;5049782;28;20216;-72
2023/07/10 07:36:42;;;;;;;6.43;3.00;;;26.20;87.90;;;;;;5039902;28;20558;-71
2023/07/10 07:39:31;;;;;;;15.88;3.10;;;26.40;86.20;;;;;;5045691;28;20225;-71
2023/07/10 07:42:18;;;;;;;6.85;2.67;;;26.60;87.00;;;;;;5049782;28;20201;-72
2023/07/10 07:45:07;;;;;;;6.97;3.50;;;26.70;81.90;;;;;;5049985;28;20551;-72
2023/07/10 07:47:56;;;;;;;7.53;3.22;;;26.80;81.50;;;;;;5049601;28;20209;-72
2023/07/10 07:50:43;;;;;;;6.45;3.28;;;27.10;83.70;;;;;;5039133;28;20668;-72
2023/07/10 07:53:32;;;;;;;8.20;3.17;;;27.40;75.20;;;;;;5049102;28;20211;-71
2023/07/10 07:56:19;;;;;;;6.57;3.90;;;27.50;77.90;;;;;;5049514;28;20232;-71
2023/07/10 07:59:07;;;;;;;8.27;3.75;;;27.70;80.70;;;;;;5044973;28;20220;-71
2023/07/10 08:01:54;;;;;;;7.68;3.42;;;28.00;78.10;;;;;;5046641;28;20205;-73
2023/07/10 08:04:42;;;;;;;6.10;3.30;;;28.10;67.70;;;;;;5050182;28;20661;-72
2023/07/10 08:07:29;;;;;;;7.15;3.97;;;28.20;73.20;;;;;;5046277;28;20294;-71
2023/07/10 08:10:17;;;;;;;7.90;3.85;;;28.40;71.10;;;;;;5045551;28;20190;-71
2023/07/10 08:13:04;;;;;;;12.57;4.15;;;28.40;72.80;;;;;;5047581;28;20704;-71
2023/07/10 08:15:51;;;;;;;7.53;3.78;;;28.20;71.60;;;;;;5045116;28;20201;-70
2023/07/10 08:18:40;;;;;;;6.72;3.72;;;27.90;73.50;;;;;;5047893;28;20236;-70
2023/07/10 08:21:29;;;;;;;9.90;3.75;;;28.30;70.40;;;;;;5048377;28;20201;-71
2023/07/10 08:24:16;;;;;;;7.82;4.22;;;28.40;68.20;;;;;;5041637;28;20224;-70
2023/07/10 08:27:03;;;;;;;6.57;4.13;;;28.20;69.30;;;;;;5047856;28;20210;-71
2023/07/10 08:29:51;;;;;;;9.82;3.90;;;28.30;69.50;;;;;;5048457;28;20189;-70
2023/07/10 08:32:38;;;;;;;8.38;3.63;;;28.40;63.00;;;;;;5045162;28;20611;-69
2023/07/10 08:35:25;;;;;;;8.70;3.53;;;28.60;64.50;;;;;;5051225;28;20201;-69
2023/07/10 08:38:13;;;;;;;7.72;3.80;;;28.70;64.80;;;;;;5046519;28;20707;-69
2023/07/10 08:41:01;;;;;;;7.25;3.42;;;28.40;70.50;;;;;;5044258;28;20232;-69
2023/07/10 08:43:49;;;;;;;6.35;3.30;;;28.50;71.70;;;;;;5046895;28;20250;-69
2023/07/10 08:46:36;;;;;;;7.32;3.22;;;28.60;66.40;;;;;;5045288;28;20617;-69
2023/07/10 08:49:26;;;;;;;7.72;3.10;;;28.60;59.50;;;;;;5041759;28;20232;-69
2023/07/10 08:52:28;;;;;;;6.75;3.30;;;28.50;66.20;;;;;;5047620;28;20221;-69
2023/07/10 08:55:27;;;;;;;8.95;3.15;;;28.50;62.20;;;;;;5044330;28;20212;-69
2023/07/10 08:58:17;;;;;;;8.07;3.25;;;28.70;63.00;;;;;;5048998;28;20201;-69
2023/07/10 09:01:22;;;;;;;7.50;3.03;;;28.80;63.30;;;;;;5041034;28;20236;-69
2023/07/10 09:04:11;;;;;;;6.45;2.85;;;28.60;58.20;;;;;;5040456;28;20197;-69
2023/07/10 09:06:59;;;;;;;8.70;3.00;;;28.50;58.90;;;;;;5048486;28;20205;-69
2023/07/10 09:09:48;;;;;;;8.27;3.15;;;28.60;61.30;;;;;;5046490;28;20267;-69
2023/07/10 09:12:39;;;;;;;5.43;2.95;;;28.80;61.30;;;;;;5043598;28;20197;-69
2023/07/10 09:15:33;;;;;;;4.82;3.13;;;28.50;59.70;;;;;;5040982;28;20605;-69
2023/07/10 09:18:22;;;;;;;3.58;2.85;;;28.40;60.90;;;;;;5035803;28;20545;-69
2023/07/10 09:21:16;;;;;;;7.07;3.30;;;28.70;59.20;;;;;;5044980;28;20264;-69
2023/07/10 09:24:04;;;;;;;3.83;2.97;;;28.60;57.90;;;;;;5041367;28;20208;-69
2023/07/10 09:26:51;;;;;;;6.07;3.00;;;29.10;58.40;;;;;;5044363;28;20660;-69
2023/07/10 09:29:40;;;;;;;11.55;3.10;;;29.50;57.20;;;;;;5038309;28;20956;-69
2023/07/10 09:32:27;;;;;;;5.90;3.10;;;30.00;55.40;;;;;;5031891;28;20206;-69
2023/07/10 09:35:14;;;;;;;5.15;2.95;;;30.40;52.30;;;;;;5040695;28;20719;-69
2023/07/10 09:38:01;;;;;;;6.18;2.90;;;30.80;49.80;;;;;;5044578;28;20700;-69
2023/07/10 09:40:50;;;;;;;6.10;3.17;;;30.70;51.60;;;;;;5044807;28;20298;-69
2023/07/10 09:43:38;;;;;;;4.18;2.72;;;30.50;51.90;;;;;;5042978;28;20244;-69
2023/07/10 09:46:28;;;;;;;7.68;2.53;;;30.80;47.90;;;;;;5043485;28;20205;-69
2023/07/10 09:49:16;;;;;;;4.97;2.72;;;31.20;50.20;;;;;;5043303;28;20786;-69
2023/07/10 09:52:04;;;;;;;4.75;2.78;;;31.60;47.60;;;;;;5045210;28;20232;-69
2023/07/10 09:54:59;;;;;;;5.50;2.70;;;31.50;46.10;;;;;;5044632;28;20204;-69
2023/07/10 09:57:54;;;;;;;7.03;2.78;;;30.40;46.40;;;;;;5045839;28;20209;-69
2023/07/10 10:00:44;;;;;;;4.05;2.63;;;30.50;47.00;;;;;;5043397;28;20217;-69
2023/07/10 10:03:38;;;;;;;8.55;3.72;;;30.80;46.90;;;;;;5039892;28;20205;-69
2023/07/10 10:06:27;;;;;;;4.47;2.63;;;30.80;46.50;;;;;;5043487;28;20574;-69
2023/07/10 10:09:21;;;;;;;4.07;3.10;;;30.80;48.00;;;;;;5044408;28;20238;-69
2023/07/10 10:12:13;;;;;;;9.00;3.20;;;31.00;46.40;;;;;;5042293;28;20193;-69
2023/07/10 10:15:03;;;;;;;5.78;3.03;;;31.00;46.10;;;;;;5043418;28;20209;-69
2023/07/10 10:17:51;;;;;;;6.00;3.10;;;31.20;45.10;;;;;;5043036;28;20718;-69
2023/07/10 10:20:39;;;;;;;7.28;3.03;;;31.20;46.00;;;;;;5045086;28;20714;-69
2023/07/10 10:23:31;;;;;;;4.40;3.13;;;31.40;46.10;;;;;;5047676;28;20206;-69
2023/07/10 10:26:35;;;;;;;5.10;3.28;;;31.70;45.20;;;;;;5044329;28;20206;-69
2023/07/10 10:29:40;;;;;;;4.93;3.40;;;31.70;44.00;;;;;;5046259;28;20205;-69
2023/07/10 10:32:31;;;;;;;5.68;3.47;;;31.70;44.60;;;;;;5046549;28;20212;-69
2023/07/10 10:35:22;;;;;;;6.57;3.40;;;32.00;43.20;;;;;;5037154;28;20205;-69
2023/07/10 10:38:35;;;;;;;5.90;3.08;;;32.40;42.50;;;;;;5046184;28;20229;-69
2023/07/10 10:41:44;;;;;;;10.73;3.42;;;32.40;43.00;;;;;;5048383;28;20721;-69
2023/07/10 10:44:44;;;;;;;4.80;3.20;;;32.80;40.90;;;;;;5046271;28;20205;-69
2023/07/10 10:47:40;;;;;;;4.70;3.33;;;32.80;39.20;;;;;;5059495;28;20219;-69
2023/07/10 10:50:40;;;;;;;5.22;3.28;;;32.60;39.80;;;;;;5045037;28;20622;-69
2023/07/10 10:53:38;;;;;;;7.07;3.45;;;32.90;39.40;;;;;;5043139;28;20286;-69
2023/07/10 10:56:26;;;;;;;8.57;3.28;;;32.60;40.90;;;;;;5034358;28;20197;-69
2023/07/10 10:59:26;;;;;;;6.22;3.25;;;32.90;42.00;;;;;;5048734;28;20761;-69
2023/07/10 11:02:22;;;;;;;5.72;3.10;;;32.90;39.70;;;;;;5045443;28;20207;-69
2023/07/10 11:05:14;;;;;;;4.88;3.55;;;33.10;39.60;;;;;;5044558;28;20197;-69
2023/07/10 11:08:03;;;;;;;5.35;3.17;;;33.70;40.10;;;;;;5044477;28;20224;-69
2023/07/10 11:10:52;;;;;;;5.60;3.42;;;33.80;42.00;;;;;;5043796;28;20193;-69
2023/07/10 11:13:39;;;;;;;8.63;3.80;;;34.10;39.30;;;;;;5036683;28;20240;-69
2023/07/10 11:16:26;;;;;;;6.90;3.65;;;34.20;41.10;;;;;;5037486;28;20206;-69
2023/07/10 11:19:17;;;;;;;7.05;3.38;;;32.90;34.40;;;;;;5035028;28;20216;-69
2023/07/10 11:22:26;;;;;;;9.65;3.42;;;32.00;36.50;;;;;;5035571;28;20216;-69
2023/07/10 11:25:29;;;;;;;10.18;3.50;;;31.90;33.50;;;;;;5045529;28;20212;-69
2023/07/10 11:28:22;;;;;;;4.93;3.25;;;31.80;33.70;;;;;;5047098;28;20197;-69
2023/07/10 11:31:23;;;;;;;6.53;3.28;;;30.60;33.20;;;;;;5042579;28;20654;-69
2023/07/10 11:34:43;;;;;;;7.53;3.72;;;29.70;35.90;;;;;;5042511;28;20209;-69
2023/07/10 11:38:09;;;;;;;7.00;3.80;;;29.30;36.50;;;;;;5040056;28;20293;-69
2023/07/10 11:41:22;;;;;;;6.57;3.78;;;29.10;37.80;;;;;;5047344;28;20306;-69
2023/07/10 11:44:19;;;;;;;6.75;3.63;;;29.30;38.40;;;;;;5042337;28;20692;-69
2023/07/10 11:47:21;;;;;;;6.63;3.85;;;29.10;40.80;;;;;;5045007;28;20383;-68
2023/07/10 11:50:17;;;;;;;5.22;3.63;;;29.00;42.10;;;;;;5041137;28;20813;-69
2023/07/10 11:53:08;;;;;;;7.93;3.45;;;28.80;44.60;;;;;;5043362;28;20205;-68
2023/07/10 11:55:58;;;;;;;7.38;4.32;;;29.00;48.70;;;;;;5045981;28;20292;-68
2023/07/10 11:58:45;;;;;;;6.55;3.70;;;28.90;45.60;;;;;;5044234;28;20209;-69
2023/07/10 12:01:34;;;;;;;7.15;3.60;;;29.10;48.30;;;;;;5044057;28;20217;-69
2023/07/10 12:04:22;;;;;;;8.95;4.18;;;29.60;45.70;;;;;;5040278;28;20513;-69
2023/07/10 12:07:11;;;;;;;9.27;4.00;;;29.70;47.10;;;;;;5042652;28;20209;-68
2023/07/10 12:09:59;;;;;;;7.78;3.90;;;29.60;43.00;;;;;;5046047;28;20244;-69
2023/07/10 12:12:46;;;;;;;5.43;3.78;;;29.60;40.60;;;;;;5043104;28;20297;-69
2023/07/10 12:15:33;;;;;;;6.20;3.85;;;29.60;42.10;;;;;;5038202;28;20394;-68
2023/07/10 12:18:23;;;;;;;9.98;4.05;;;29.60;42.10;;;;;;5043827;28;20541;-69
2023/07/10 12:21:12;;;;;;;7.60;3.88;;;29.70;42.50;;;;;;5041923;28;20221;-70
2023/07/10 12:24:00;;;;;;;6.22;3.92;;;30.00;44.10;;;;;;5046581;28;20636;-69
2023/07/10 12:26:52;;;;;;;8.07;4.32;;;29.40;44.70;;;;;;5046688;28;20285;-69
2023/07/10 12:29:40;;;;;;;4.93;3.97;;;29.70;41.60;;;;;;5032598;28;20577;-69
2023/07/10 12:32:27;;;;;;;6.60;4.15;;;30.10;43.80;;;;;;5043106;28;20672;-69
2023/07/10 12:35:18;;;;;;;8.55;3.90;;;29.80;42.60;;;;;;5039207;28;20193;-69
2023/07/10 12:38:07;;;;;;;8.32;3.88;;;29.20;41.90;;;;;;5044040;28;20233;-69
2023/07/10 12:40:55;;;;;;;5.70;3.88;;;28.90;43.40;;;;;;5042127;28;21235;-69
2023/07/10 12:43:47;;;;;;;9.05;4.22;;;28.40;44.20;;;;;;5039848;28;21405;-69
2023/07/10 12:46:34;;;;;;;8.02;4.35;;;28.40;44.80;;;;;;5044168;28;20694;-70
2023/07/10 12:49:23;;;;;;;11.32;4.10;;;28.30;45.50;;;;;;5039758;28;20221;-69
2023/07/10 12:52:13;;;;;;;6.90;4.70;;;28.20;43.60;;;;;;5043501;28;20517;-69
2023/07/10 12:55:00;;;;;;;12.68;4.53;;;28.00;45.50;;;;;;5045100;28;20208;-69
2023/07/10 12:57:47;;;;;;;19.60;4.72;;;27.90;45.20;;;;;;5044920;28;20201;-69
2023/07/10 13:00:41;;;;;;;7.13;3.90;;;27.70;46.60;;;;;;5043189;28;20778;-70
2023/07/10 13:03:30;;;;;;;7.43;4.45;;;27.50;45.40;;;;;;5040505;28;20204;-69
2023/07/10 13:06:18;;;;;;;6.47;4.45;;;27.30;47.20;;;;;;5038063;28;20244;-69
2023/07/10 13:09:06;;;;;;;6.38;4.35;;;27.40;48.40;;;;;;5039919;28;20197;-69
2023/07/10 13:11:53;;;;;;;6.75;4.68;;;27.10;49.50;;;;;;5042271;28;20583;-70
2023/07/10 13:14:41;;;;;;;7.50;4.40;;;27.00;50.00;;;;;;5043864;28;20240;-70
2023/07/10 13:17:30;;;;;;;8.95;4.80;;;27.00;49.50;;;;;;5042989;28;20249;-69
2023/07/10 13:20:19;;;;;;;6.40;4.38;;;27.00;52.10;;;;;;5043348;28;20204;-70
2023/07/10 13:23:07;;;;;;;6.80;4.22;;;27.10;50.30;;;;;;5039184;28;20205;-70
2023/07/10 13:25:56;;;;;;;12.68;5.07;;;27.40;51.30;;;;;;5039001;28;20201;-70
2023/07/10 13:28:43;;;;;;;7.30;4.60;;;27.60;50.40;;;;;;5042116;28;20224;-69
2023/07/10 13:31:31;;;;;;;8.60;4.68;;;27.80;50.30;;;;;;5045083;28;20212;-70
2023/07/10 13:34:18;;;;;;;9.63;4.57;;;27.80;50.40;;;;;;5042112;28;20639;-70
2023/07/10 13:37:15;;;;;;;13.23;4.72;;;27.50;51.80;;;;;;5043091;28;20217;-70
2023/07/10 13:40:02;;;;;;;7.88;4.60;;;27.80;52.30;;;;;;5042984;28;20706;-69
2023/07/10 13:42:51;;;;;;;9.70;4.97;;;28.20;52.00;;;;;;5036225;28;20756;-68
2023/07/10 13:45:38;;;;;;;7.20;4.38;;;28.30;50.00;;;;;;5043949;28;20672;-69
2023/07/10 13:48:26;;;;;;;10.50;4.55;;;29.30;49.90;;;;;;5048833;28;20281;-70
2023/07/10 13:51:13;;;;;;;11.18;5.10;;;29.30;48.30;;;;;;5041719;28;20226;-69
2023/07/10 13:54:00;;;;;;;14.65;4.95;;;29.50;45.60;;;;;;5047235;28;20197;-69
2023/07/10 13:56:47;;;;;;;9.27;5.05;;;29.70;46.80;;;;;;5046264;28;20362;-69
2023/07/10 13:59:36;;;;;;;6.80;4.65;;;29.90;43.90;;;;;;5046310;28;20200;-69
2023/07/10 14:02:30;;;;;;;9.07;4.55;;;30.00;45.50;;;;;;5045824;28;20630;-69
2023/07/10 14:05:18;;;;;;;9.02;5.03;;;30.10;42.80;;;;;;5048693;28;20204;-70
2023/07/10 14:08:14;;;;;;;12.13;4.60;;;30.20;41.90;;;;;;5046167;28;20571;-68
2023/07/10 14:11:02;;;;;;;9.45;5.25;;;29.50;42.20;;;;;;5042791;28;20231;-68
2023/07/10 14:13:50;;;;;;;6.38;4.57;;;29.10;45.90;;;;;;5045874;28;20236;-69
2023/07/10 14:16:38;;;;;;;11.20;5.35;;;29.80;43.30;;;;;;5046865;28;20197;-68
2023/07/10 14:19:25;;;;;;;9.93;5.18;;;29.70;43.10;;;;;;5039336;28;20205;-68
2023/07/10 14:22:12;;;;;;;7.35;4.38;;;30.00;43.70;;;;;;5045947;28;20213;-67
2023/07/10 14:25:00;;;;;;;10.25;5.13;;;30.50;43.70;;;;;;5048132;28;20209;-68
2023/07/10 14:27:47;;;;;;;12.80;5.25;;;30.80;41.50;;;;;;5046766;28;20661;-68
2023/07/10 14:30:34;;;;;;;9.07;4.90;;;30.80;41.40;;;;;;5047542;28;20212;-67
2023/07/10 14:33:23;;;;;;;11.50;4.88;;;30.60;41.70;;;;;;5051187;28;20205;-68
2023/07/10 14:36:14;;;;;;;11.90;4.88;;;29.70;43.10;;;;;;5048777;28;20238;-68
2023/07/10 14:39:01;;;;;;;8.10;5.00;;;29.60;44.50;;;;;;5045592;28;20218;-68